createdAt,value
2022-08-10T00:02:12.293Z,95644.13
2022-08-10T00:05:22.338Z,95648.13
2022-08-10T00:08:31.064Z,95647.56
2022-08-10T00:11:40.836Z,95648.03
2022-08-10T00:14:49.389Z,95643.56
2022-08-10T00:17:59.728Z,95655.03
2022-08-10T00:21:10.316Z,95646.66
2022-08-10T00:24:18.845Z,95649.00
2022-08-10T00:27:59.030Z,95643.75
2022-08-10T00:30:59.379Z,95632.84
2022-08-10T00:34:07.570Z,95645.00
2022-08-10T00:37:18.339Z,95647.78
2022-08-10T00:40:37.123Z,95651.34
2022-08-10T00:43:48.162Z,95645.41
2022-08-10T00:46:56.625Z,95647.34
2022-08-10T00:50:06.836Z,95647.38
2022-08-10T00:53:16.050Z,95646.88
2022-08-10T00:57:12.242Z,95639.81
2022-08-10T00:59:59.613Z,95645.59
2022-08-10T01:03:08.691Z,95640.22
2022-08-10T01:06:39.725Z,95637.88
2022-08-10T01:10:04.316Z,95647.31
2022-08-10T01:13:27.727Z,95642.34
2022-08-10T01:16:52.549Z,95641.00
2022-08-10T01:20:10.659Z,95646.59
2022-08-10T01:24:29.873Z,95643.81
2022-08-10T01:27:56.844Z,95643.91
2022-08-10T01:31:11.953Z,95646.41
2022-08-10T01:34:26.578Z,95651.63
2022-08-10T01:37:40.257Z,95638.91
2022-08-10T01:40:56.166Z,95640.25
2022-08-10T01:44:16.067Z,95643.06
2022-08-10T01:47:54.687Z,95634.78
2022-08-10T01:51:20.071Z,95636.19
2022-08-10T01:54:31.188Z,95635.69
2022-08-10T01:57:43.206Z,95635.25
2022-08-10T02:00:55.880Z,95631.94
2022-08-10T02:04:12.137Z,95625.94
2022-08-10T02:07:26.047Z,95628.88
2022-08-10T02:10:41.086Z,95634.72
2022-08-10T02:13:51.952Z,95632.00
2022-08-10T02:17:04.315Z,95628.97
2022-08-10T02:20:19.661Z,95639.06
2022-08-10T02:23:32.626Z,95627.97
2022-08-10T02:26:42.948Z,95636.13
2022-08-10T02:29:57.091Z,95629.13
2022-08-10T02:33:06.941Z,95637.28
2022-08-10T02:36:19.825Z,95631.69
2022-08-10T02:39:29.366Z,95619.59
2022-08-10T02:45:23.959Z,95628.53
2022-08-10T02:46:29.745Z,95626.34
2022-08-10T02:49:43.653Z,95611.44
2022-08-10T02:53:03.443Z,95608.59
2022-08-10T02:56:19.909Z,95619.31
2022-08-10T02:59:38.494Z,95617.59
2022-08-10T03:02:54.608Z,95620.31
2022-08-10T03:06:11.750Z,95619.25
2022-08-10T03:09:24.678Z,95615.38
2022-08-10T03:12:38.788Z,95614.47
2022-08-10T03:15:50.201Z,95615.94
2022-08-10T03:19:03.485Z,95617.63
2022-08-10T03:22:13.504Z,95610.59
2022-08-10T03:25:27.413Z,95606.50
2022-08-10T03:28:37.084Z,95609.34
2022-08-10T03:31:46.781Z,95607.75
2022-08-10T03:34:56.233Z,95605.41
2022-08-10T03:38:05.186Z,95604.44
2022-08-10T03:41:17.432Z,95599.31
2022-08-10T03:44:33.522Z,95597.59
2022-08-10T03:47:45.678Z,95601.97
2022-08-10T03:50:55.763Z,95602.25
2022-08-10T03:54:07.527Z,95604.31
2022-08-10T03:57:17.632Z,95601.63
2022-08-10T04:00:28.795Z,95600.06
2022-08-10T04:03:37.143Z,95599.66
2022-08-10T04:06:45.706Z,95598.22
2022-08-10T04:09:56.454Z,95606.34
2022-08-10T04:13:08.822Z,95612.78
2022-08-10T04:16:17.304Z,95611.59
2022-08-10T04:19:29.340Z,95612.06
2022-08-10T04:22:39.234Z,95616.69
2022-08-10T04:25:47.794Z,95620.91
2022-08-10T04:28:57.457Z,95621.50
2022-08-10T04:32:10.520Z,95621.13
2022-08-10T04:35:21.786Z,95620.81
2022-08-10T04:38:34.674Z,95624.59
2022-08-10T04:41:46.314Z,95622.97
2022-08-10T04:44:56.272Z,95623.25
2022-08-10T04:48:06.622Z,95621.94
2022-08-10T04:51:42.029Z,95628.16
2022-08-10T04:54:50.554Z,95626.19
2022-08-10T04:57:59.188Z,95622.84
2022-08-10T05:01:07.691Z,95629.84
2022-08-10T05:04:35.508Z,95628.31
2022-08-10T05:07:53.881Z,95625.88
2022-08-10T05:11:05.419Z,95632.88
2022-08-10T05:14:13.987Z,95626.97
2022-08-10T05:17:22.270Z,95627.47
2022-08-10T05:20:32.529Z,95627.81
2022-08-10T05:23:41.034Z,95632.47
2022-08-10T05:26:55.213Z,95625.97
2022-08-10T05:30:20.239Z,95629.50
2022-08-10T05:33:28.559Z,95637.28
2022-08-10T05:36:38.658Z,95632.78
2022-08-10T05:39:50.402Z,95640.22
2022-08-10T05:42:58.877Z,95637.88
2022-08-10T05:46:16.854Z,95645.31
2022-08-10T05:49:29.089Z,95640.34
2022-08-10T05:52:38.860Z,95643.00
2022-08-10T05:55:47.241Z,95637.22
2022-08-10T05:58:56.032Z,95641.31
2022-08-10T06:02:31.076Z,95640.19
2022-08-10T06:05:38.559Z,95639.28
2022-08-10T06:08:51.476Z,95637.72
2022-08-10T06:12:27.102Z,95638.56
2022-08-10T06:15:52.039Z,95641.16
2022-08-10T06:18:59.935Z,95638.97
2022-08-10T06:22:09.046Z,95644.94
2022-08-10T06:26:08.342Z,95637.47
2022-08-10T06:29:02.854Z,95638.03
2022-08-10T06:32:14.783Z,95641.63
2022-08-10T06:35:27.050Z,95651.38
2022-08-10T06:38:37.247Z,95642.75
2022-08-10T06:41:57.779Z,95641.63
2022-08-10T06:45:26.742Z,95638.81
2022-08-10T06:48:42.906Z,95637.59
2022-08-10T06:51:57.677Z,95634.50
2022-08-10T06:55:10.845Z,95624.41
2022-08-10T06:58:26.828Z,95629.09
2022-08-10T07:01:39.672Z,95626.03
2022-08-10T07:04:54.506Z,95623.72
2022-08-10T07:08:05.214Z,95619.34
2022-08-10T07:11:16.236Z,95615.13
2022-08-10T07:14:28.730Z,95614.31
2022-08-10T07:17:39.800Z,95610.16
2022-08-10T07:20:49.287Z,95618.72
2022-08-10T07:24:00.863Z,95609.03
2022-08-10T07:27:11.670Z,95604.75
2022-08-10T07:30:21.929Z,95608.53
2022-08-10T07:33:30.961Z,95603.91
2022-08-10T07:36:43.910Z,95600.97
2022-08-10T07:40:03.189Z,95600.25
2022-08-10T07:43:15.382Z,95609.81
2022-08-10T07:46:29.412Z,95602.81
2022-08-10T07:49:43.310Z,95605.19
2022-08-10T07:52:55.011Z,95591.00
2022-08-10T07:56:20.857Z,95595.84
2022-08-10T07:59:42.902Z,95604.44
2022-08-10T08:02:56.577Z,95599.28
2022-08-10T08:06:11.576Z,95600.03
2022-08-10T08:09:22.405Z,95600.09
2022-08-10T08:12:36.740Z,95587.69
2022-08-10T08:16:19.903Z,95606.06
2022-08-10T08:19:33.648Z,95601.59
2022-08-10T08:24:07.236Z,95597.16
2022-08-10T08:26:23.518Z,95604.75
2022-08-10T08:29:36.877Z,95605.91
2022-08-10T08:32:46.877Z,95603.97
2022-08-10T08:35:58.147Z,95601.00
2022-08-10T08:39:07.032Z,95600.09
2022-08-10T08:42:36.653Z,95603.28
2022-08-10T08:46:40.208Z,95605.53
2022-08-10T08:50:16.264Z,95599.13
2022-08-10T08:54:01.777Z,95588.38
2022-08-10T08:57:49.443Z,95590.31
2022-08-10T09:01:17.904Z,95585.97
2022-08-10T09:04:48.382Z,95578.34
2022-08-10T09:08:17.408Z,95577.25
2022-08-10T09:11:46.592Z,95573.03
2022-08-10T09:15:10.629Z,95587.91
2022-08-10T09:18:50.677Z,95575.16
2022-08-10T09:22:17.710Z,95578.81
2022-08-10T09:25:35.809Z,95578.16
2022-08-10T09:28:45.820Z,95582.16
2022-08-10T09:36:14.701Z,95575.31
2022-08-10T09:36:21.604Z,95576.34
2022-08-10T09:40:56.954Z,95583.50
2022-08-10T09:43:26.674Z,95581.91
2022-08-10T09:47:14.318Z,95564.00
2022-08-10T09:51:22.377Z,95574.97
2022-08-10T09:54:22.408Z,95558.66
2022-08-10T09:57:44.891Z,95586.34
2022-08-10T10:01:07.268Z,95566.41
2022-08-10T10:04:48.488Z,95569.69
2022-08-10T10:08:10.507Z,95568.84
2022-08-10T10:11:27.618Z,95576.16
2022-08-10T10:15:10.157Z,95568.44
2022-08-10T10:18:46.091Z,95577.31
2022-08-10T10:22:14.968Z,95572.88
2022-08-10T10:25:51.737Z,95556.31
2022-08-10T10:29:37.525Z,95564.69
2022-08-10T10:33:03.925Z,95562.16
2022-08-10T10:36:15.641Z,95549.19
2022-08-10T10:39:28.168Z,95552.41
2022-08-10T10:42:50.422Z,95554.41
2022-08-10T10:46:12.981Z,95543.22
2022-08-10T10:49:39.958Z,95542.09
2022-08-10T10:53:04.015Z,95551.53
2022-08-10T10:56:27.454Z,95553.00
2022-08-10T10:59:55.333Z,95541.72
2022-08-10T11:03:28.041Z,95559.38
2022-08-10T11:06:53.637Z,95553.78
2022-08-10T11:10:31.954Z,95546.25
2022-08-10T11:14:24.550Z,95555.03
2022-08-10T11:17:27.075Z,95549.78
2022-08-10T11:20:48.072Z,95559.19
2022-08-10T11:24:48.930Z,95567.22
2022-08-10T11:27:55.594Z,95560.88
2022-08-10T11:31:17.245Z,95569.19
2022-08-10T11:34:48.909Z,95559.34
2022-08-10T11:38:34.660Z,95562.56
2022-08-10T11:42:11.655Z,95563.97
2022-08-10T11:45:31.360Z,95554.50
2022-08-10T11:48:54.904Z,95559.03
2022-08-10T11:52:14.047Z,95550.47
2022-08-10T11:55:26.009Z,95568.34
2022-08-10T11:58:58.925Z,95563.28
2022-08-10T12:02:10.370Z,95563.91
2022-08-10T12:05:53.075Z,95554.34
2022-08-10T12:10:09.589Z,95563.44
2022-08-10T12:12:31.733Z,95569.38
2022-08-10T12:15:55.833Z,95575.34
2022-08-10T12:19:15.049Z,95566.88
2022-08-10T12:22:32.077Z,95565.47
2022-08-10T12:25:58.662Z,95555.50
2022-08-10T12:29:16.030Z,95556.22
2022-08-10T12:32:36.872Z,95543.44
2022-08-10T12:36:17.286Z,95549.47
2022-08-10T12:39:32.443Z,95545.44
2022-08-10T12:43:03.897Z,95539.00
2022-08-10T12:46:36.317Z,95536.00
2022-08-10T12:50:21.639Z,95534.97
2022-08-10T12:53:51.591Z,95523.56
2022-08-10T12:57:08.941Z,95531.56
2022-08-10T13:00:19.378Z,95519.66
2022-08-10T13:04:20.532Z,95514.44
2022-08-10T13:07:03.308Z,95515.91
2022-08-10T13:10:15.359Z,95513.06
2022-08-10T13:13:35.994Z,95517.81
2022-08-10T13:16:48.649Z,95506.22
2022-08-10T13:20:12.970Z,95498.16
2022-08-10T13:23:26.724Z,95499.81
2022-08-10T13:27:22.714Z,95495.06
2022-08-10T13:30:13.453Z,95496.69
2022-08-10T13:34:03.568Z,95500.31
2022-08-10T13:37:02.250Z,95490.06
2022-08-10T13:40:16.101Z,95495.28
2022-08-10T13:43:27.270Z,95496.56
2022-08-10T13:46:40.383Z,95493.31
2022-08-10T13:49:53.399Z,95483.97
2022-08-10T13:53:13.994Z,95482.31
2022-08-10T13:56:25.830Z,95484.44
2022-08-10T14:00:36.106Z,95482.16
2022-08-10T14:03:11.967Z,95477.06
2022-08-10T14:06:29.494Z,95482.88
2022-08-10T14:09:39.184Z,95476.25
2022-08-10T14:12:51.379Z,95478.38
2022-08-10T14:16:06.303Z,95471.81
2022-08-10T14:19:20.887Z,95478.31
2022-08-10T14:22:33.834Z,95477.31
2022-08-10T14:25:53.479Z,95468.69
2022-08-10T14:29:07.718Z,95468.22
2022-08-10T14:32:21.771Z,95471.28
2022-08-10T14:36:19.627Z,95464.44
2022-08-10T14:39:08.228Z,95455.84
2022-08-10T14:42:27.530Z,95454.53
2022-08-10T14:45:40.924Z,95453.59
2022-08-10T14:48:52.424Z,95464.00
2022-08-10T14:52:06.031Z,95459.75
2022-08-10T14:55:19.519Z,95448.91
2022-08-10T14:58:32.953Z,95445.59
2022-08-10T15:02:38.207Z,95443.53
2022-08-10T15:05:18.843Z,95440.34
2022-08-10T15:08:36.654Z,95445.13
2022-08-10T15:12:13.081Z,95447.25
2022-08-10T15:15:27.923Z,95440.78
2022-08-10T15:18:43.251Z,95443.47
2022-08-10T15:22:35.768Z,95437.69
2022-08-10T15:25:57.670Z,95440.63
2022-08-10T15:29:23.048Z,95451.09
2022-08-10T15:32:57.611Z,95442.84
2022-08-10T15:36:26.344Z,95441.56
2022-08-10T15:40:24.052Z,95428.41
2022-08-10T15:43:27.006Z,95428.69
2022-08-10T15:46:45.586Z,95429.47
2022-08-10T15:50:04.143Z,95430.16
2022-08-10T15:53:29.110Z,95422.44
2022-08-10T15:56:46.128Z,95419.56
2022-08-10T16:00:05.153Z,95422.38
2022-08-10T16:03:24.910Z,95420.84
2022-08-10T16:06:40.356Z,95410.53
2022-08-10T16:10:22.543Z,95409.13
2022-08-10T16:14:00.109Z,95418.00
2022-08-10T16:17:03.186Z,95404.78
2022-08-10T16:20:12.655Z,95398.03
2022-08-10T16:23:25.751Z,95405.78
2022-08-10T16:26:39.911Z,95406.19
2022-08-10T16:29:54.449Z,95405.16
2022-08-10T16:33:08.853Z,95400.47
2022-08-10T16:36:20.752Z,95404.69
2022-08-10T16:39:59.253Z,95408.22
2022-08-10T16:43:10.666Z,95403.34
2022-08-10T16:46:22.383Z,95403.72
2022-08-10T16:49:38.026Z,95392.94
2022-08-10T16:52:50.578Z,95391.47
2022-08-10T16:56:04.221Z,95393.09
2022-08-10T16:59:17.748Z,95399.34
2022-08-10T17:02:32.680Z,95395.16
2022-08-10T17:06:10.321Z,95399.41
2022-08-10T17:09:19.368Z,95396.72
2022-08-10T17:12:32.580Z,95399.47
2022-08-10T17:15:51.269Z,95395.34
2022-08-10T17:18:59.982Z,95393.34
2022-08-10T17:22:16.092Z,95402.34
2022-08-10T17:25:46.186Z,95407.00
2022-08-10T17:29:07.290Z,95397.44
2022-08-10T17:32:25.124Z,95390.44
2022-08-10T17:35:38.037Z,95390.56
2022-08-10T17:38:52.876Z,95397.00
2022-08-10T17:42:03.943Z,95399.16
2022-08-10T17:45:47.841Z,95394.94
2022-08-10T17:48:52.993Z,95388.50
2022-08-10T17:52:05.814Z,95390.13
2022-08-10T17:55:17.087Z,95403.75
2022-08-10T17:58:28.338Z,95396.88
2022-08-10T18:01:58.166Z,95409.31
2022-08-10T18:05:11.110Z,95402.41
2022-08-10T18:08:22.730Z,95403.66
2022-08-10T18:11:42.331Z,95405.19
2022-08-10T18:14:55.696Z,95413.03
2022-08-10T18:18:06.368Z,95410.38
2022-08-10T18:21:24.879Z,95417.72
2022-08-10T18:24:40.052Z,95423.56
2022-08-10T18:28:04.552Z,95427.44
2022-08-10T18:31:21.251Z,95425.13
2022-08-10T18:34:37.186Z,95430.19
2022-08-10T18:37:51.353Z,95429.03
2022-08-10T18:41:05.896Z,95430.22
2022-08-10T18:44:20.448Z,95437.53
2022-08-10T18:47:37.560Z,95438.72
2022-08-10T18:50:53.282Z,95443.34
2022-08-10T18:54:39.845Z,95443.69
2022-08-10T18:58:28.939Z,95449.41
2022-08-10T19:02:14.520Z,95448.97
2022-08-10T19:05:49.075Z,95448.59
2022-08-10T19:09:47.142Z,95459.75
2022-08-10T19:13:00.298Z,95455.84
2022-08-10T19:16:19.276Z,95454.16
2022-08-10T19:19:41.998Z,95461.03
2022-08-10T19:23:05.504Z,95455.19
2022-08-10T19:26:43.817Z,95462.41
2022-08-10T19:30:13.073Z,95463.56
2022-08-10T19:33:37.073Z,95463.00
2022-08-10T19:37:03.479Z,95467.19
2022-08-10T19:40:44.604Z,95468.63
2022-08-10T19:44:04.309Z,95468.63
2022-08-10T19:47:26.081Z,95465.84
2022-08-10T19:50:45.304Z,95464.59
2022-08-10T19:54:10.162Z,95464.88
2022-08-10T19:57:32.101Z,95471.34
2022-08-10T20:00:54.939Z,95470.03
2022-08-10T20:04:13.075Z,95471.56
2022-08-10T20:07:30.691Z,95473.63
2022-08-10T20:10:50.674Z,95472.97
2022-08-10T20:14:21.197Z,95473.81
2022-08-10T20:17:51.212Z,95468.44
2022-08-10T20:21:13.621Z,95473.72
2022-08-10T20:24:30.118Z,95472.44
2022-08-10T20:27:59.212Z,95471.78
2022-08-10T20:31:17.694Z,95466.41
2022-08-10T20:34:34.366Z,95459.59
2022-08-10T20:38:04.543Z,95463.25
2022-08-10T20:41:29.804Z,95468.47
2022-08-10T20:44:53.675Z,95464.06
2022-08-10T20:48:17.895Z,95461.03
2022-08-10T20:51:58.746Z,95454.53
2022-08-10T20:55:12.431Z,95446.53
2022-08-10T20:58:44.008Z,95447.78
2022-08-10T21:02:12.826Z,95449.03
2022-08-10T21:05:32.996Z,95447.56
2022-08-10T21:08:54.190Z,95448.88
2022-08-10T21:12:51.710Z,95445.56
2022-08-10T21:16:20.270Z,95439.44
2022-08-10T21:19:56.908Z,95435.13
2022-08-10T21:23:08.621Z,95431.19
2022-08-10T21:26:29.799Z,95434.63
2022-08-10T21:29:55.995Z,95429.63
2022-08-10T21:33:11.838Z,95438.91
2022-08-10T21:36:30.416Z,95442.28
2022-08-10T21:40:04.786Z,95437.63
2022-08-10T21:43:50.443Z,95437.34
2022-08-10T21:48:15.667Z,95431.88
2022-08-10T21:52:01.162Z,95429.81
2022-08-10T21:55:56.993Z,95432.97
2022-08-10T21:59:34.989Z,95429.53
2022-08-10T22:03:03.738Z,95425.63
2022-08-10T22:06:34.464Z,95433.94
2022-08-10T22:10:07.714Z,95423.41
2022-08-10T22:13:37.944Z,95428.06
2022-08-10T22:21:01.878Z,95413.69
2022-08-10T22:24:48.326Z,95407.19
2022-08-10T22:31:25.965Z,95409.16
2022-08-10T22:31:26.217Z,95394.78
2022-08-10T22:32:19.799Z,95397.94
2022-08-10T22:36:18.789Z,95399.31
2022-08-10T22:40:15.050Z,95398.28
2022-08-10T22:43:51.701Z,95396.44
2022-08-10T22:47:20.456Z,95388.19
2022-08-10T22:50:36.597Z,95393.09
2022-08-10T22:54:11.251Z,95396.25
2022-08-10T22:58:03.793Z,95389.59
2022-08-10T23:01:39.070Z,95383.47
2022-08-10T23:04:56.640Z,95391.84
2022-08-10T23:08:29.397Z,95390.88
2022-08-10T23:11:43.236Z,95390.41
2022-08-10T23:15:12.922Z,95389.84
2022-08-10T23:18:52.087Z,95398.03
2022-08-10T23:22:08.734Z,95398.94
2022-08-10T23:25:28.304Z,95395.88
2022-08-10T23:28:58.355Z,95393.03
2022-08-10T23:32:10.751Z,95388.59
2022-08-10T23:36:32.114Z,95383.38
2022-08-10T23:39:26.488Z,95378.03
2022-08-10T23:42:28.472Z,95378.63
2022-08-10T23:45:53.675Z,95380.84
2022-08-10T23:49:06.260Z,95372.84
2022-08-10T23:52:22.487Z,95377.19
2022-08-10T23:55:49.559Z,95371.06
2022-08-10T23:59:00.219Z,95371.31
